Aérodrome :
LOGIN :

S'inscrire | Disclaimer

   EN    FR    IT 

 










Légende :    VFR   VFR Marginal   IFR   IFR Intensif   IFR Très Intensif
Visi : 
Plafond : 
>= 8 km
>= 3000ft
5 à 8 km
1000 à 3000 ft
1500m à 5 km
500 à 1000 ft
800 à 1500m
200 à 500 ft
< 800m
< 200 ft
Symboles :   Orages  Brouillard  Fortes neiges  Fortes précipitations  Vent > 20 kt
SIGMETs :   Divers  Orages  Givrage  Turbulence  Onde Orograph.  Cendres Volcan.






- Altitude de l'aérodrome : 425 ft
- Code IATA : DTM


EDLW - Dortmund

DERNIER METAR :
  • 051950Z 20011KT CAVOK 02/M01 Q1017

METARs EXPIRÉS :
  • 051920Z 19010KT CAVOK 02/M01 Q1018
  • 051850Z 23007KT CAVOK 01/M01 Q1018
  • 051820Z 20008KT CAVOK 01/M00 Q1018
  • 051750Z 21008KT 9000 NSC 01/M00 Q1018
  • 051720Z 20007KT 8000 NSC 01/M00 Q1018

TAF TAF EDLW
Valide du 05 à 18h jusqu'au 06 à 18h UTC


051700Z 0518/0618 21010KT CAVOK
BECMG 0600/0603 21015G25KT
BECMG 0612/0615 BKN012
TEMPO 0612/0618 RA



MET'MAP, la Météo Aéronautique d'un coup d'oeil ! - Copyright ORBIFLY Décembre 2007 - Disclaimer

ORBIFLY MET'MAP TEAM :

Programmation & Développement : Alexandra Zaïnal
Sur une idée originale de : Baudouin d'Aumeries
Assistance à la programmation : Marc-Olivier Méhu
Soutien technique & logistique : Manuel Goepfert

Contact : metmap@orbifly.com




SOURCES & CREDITS :

   NOAA